Lucky Five Ranch (79) Station Data

Red Flag Warning: No
Fire Weather Zone: 258
SDGE Region: Mountain Empire
Lat/Lon: 32.933/-116.528

Observations

Time Wind Speed/Gust Temp(F) RH Fuel Moist Fuel Temp(F) Dewpt(F) Tmax(F) Tmin(F) Accum Precip 10-min Precip SL Press(mb)
3/29 8:00am 354 4 G 11 56° 17% - - 12° 55.8° 49.2° - - -
3/29 7:50am 47 7 G 14 55° 17% - - 11° 55.7° 49.2° - - -
3/29 7:40am 52 7 G 15 55° 17% - - 11° 55.3° 49.2° - - -
3/29 7:30am 58 9 G 16 54° 18% - - 11° 55.2° 49.2° - - -
3/29 7:20am 63 9 G 15 54° 18% - - 11° 55.2° 49.2° - - -
3/29 7:10am 57 5 G 9 54° 17% - - 11° 55.2° 49.2° - - -
3/29 7:00am 341 4 G 9 54° 17% - - 10° 55.2° 49.2° - - -
3/29 6:50am 38 4 G 10 54° 17% - - 10° 55.2° 49.2° - - -
3/29 6:40am 53 4 G 8 54° 17% - - 10° 55.2° 49.2° - - -
3/29 6:30am 349 3 G 7 54° 17% - - 55.2° 49.2° - - -
3/29 6:20am 320 4 G 11 54° 17% - - 10° 55.2° 49.2° - - -
3/29 6:10am 284 3 G 8 53° 17% - - 55.2° 49.2° - - -
3/29 6:00am 248 3 G 6 53° 17% - - 55.2° 49.2° - - -
3/29 5:50am 291 2 G 9 53° 17% - - 55.2° 49.2° - - -
3/29 5:40am 206 3 G 11 53° 16% - - 55.2° 49.2° - - -
3/29 5:30am 307 3 G 7 53° 17% - - 55.2° 49.2° - - -
3/29 5:20am 244 2 G 5 53° 17% - - 55.2° 49.2° - - -
3/29 5:10am 348 2 G 7 53° 16% - - 55.2° 49.2° - - -
3/29 5:00am 108 1 G 7 52° 17% - - 55.2° 49.2° - - -
3/29 4:50am 82 5 G 8 52° 17% - - 55.2° 49.2° - - -
3/29 4:40am 105 3 G 8 53° 16% - - 55.2° 49.2° - - -
3/29 4:30am 61 6 G 13 53° 15% - - 55.2° 49.2° - - -
3/29 4:20am 70 8 G 14 53° 15% - - 55.2° 49.2° - - -
3/29 4:10am 71 8 G 20 54° 15% - - 55.2° 49.2° - - -
3/29 4:00am 66 9 G 16 54° 15% - - 55.2° 49.2° - - -
3/29 3:50am 73 5 G 16 53° 16% - - 55.2° 49.2° - - -
3/29 3:40am 349 3 G 8 53° 16% - - 55.2° 49.2° - - -
3/29 3:30am 48 4 G 12 53° 15% - - 55.2° 49.2° - - -
3/29 3:20am 298 4 G 10 53° 15% - - 55.2° 49.2° - - -
3/29 3:10am 260 4 G 10 53° 16% - - 55.2° 49.2° - - -
3/29 3:00am 65 9 G 23 55° 14% - - 55.2° 49.2° - - -
3/29 2:50am 58 13 G 24 55° 14% - - 55.2° 49.2° - - -
3/29 2:40am 62 16 G 27 55° 14% - - 55.2° 49.2° - - -
3/29 2:30am 58 15 G 30 55° 14% - - 55.2° 49.2° - - -
3/29 2:20am 62 16 G 27 55° 14% - - 55.1° 49.2° - - -
3/29 2:10am 66 14 G 28 54° 14% - - 54.9° 49.2° - - -
3/29 2:00am 61 10 G 24 54° 15% - - 54.5° 49.2° - - -
3/29 1:50am 31 5 G 20 54° 15% - - 54.2° 49.2° - - -
3/29 1:40am 58 7 G 17 53° 15% - - 53.9° 49.2° - - -
3/29 1:30am 260 2 G 5 50° 19% - - 10° 52.6° 49.2° - - -
3/29 1:20am 164 2 G 4 50° 20% - - 10° 52.6° 49.4° - - -
3/29 1:10am 296 1 G 4 51° 19% - - 10° 52.6° 49.9° - - -
3/29 1:00am 309 3 G 5 51° 18% - - 52.6° 49.9° - - -
3/29 12:50am 311 2 G 4 52° 18% - - 52.6° 49.9° - - -
3/29 12:40am 341 2 G 4 51° 19% - - 10° 52.6° 49.9° - - -
3/29 12:30am 45 1 G 4 51° 18% - - 52.6° 50.3° - - -
3/29 12:20am 36 2 G 4 51° 18% - - 52.6° 50.6° - - -
3/29 12:10am 17 2 G 4 52° 17% - - 52.6° 51.1° - - -
3/29 12:00am 49 2 G 5 51° 20% - - 11° 65.4° 41.4° - - -
3/28 11:50pm 59 5 G 6 52° 19% - - 11° 65.4° 41.4° - - -
3/28 11:40pm 39 5 G 6 52° 19% - - 11° 65.4° 41.4° - - -
3/28 11:30pm 40 5 G 6 52° 18% - - 10° 65.4° 41.4° - - -
3/28 11:20pm 34 3 G 5 53° 18% - - 10° 65.4° 41.4° - - -
3/28 11:10pm 43 3 G 5 52° 18% - - 10° 65.4° 41.4° - - -
3/28 11:00pm 36 2 G 3 53° 17% - - 65.4° 41.4° - - -
3/28 10:50pm 30 3 G 6 53° 17% - - 65.4° 41.4° - - -
3/28 10:40pm 358 4 G 6 54° 15% - - 65.4° 41.4° - - -
3/28 10:30pm 348 5 G 7 54° 15% - - 65.4° 41.4° - - -
3/28 10:20pm 354 4 G 5 54° 16% - - 65.4° 41.4° - - -
3/28 10:10pm 341 3 G 4 54° 17% - - 10° 65.4° 41.4° - - -
3/28 10:00pm 359 3 G 4 54° 17% - - 10° 65.4° 41.4° - - -
3/28 9:50pm 13 2 G 4 52° 27% - - 19° 65.4° 41.4° - - -
3/28 9:40pm 14 5 G 7 52° 32% - - 23° 65.4° 41.4° - - -
3/28 9:30pm 353 2 G 6 51° 40% - - 28° 65.4° 41.4° - - -
3/28 9:20pm 18 3 G 5 51° 48% - - 32° 65.4° 41.4° - - -
3/28 9:10pm 79 1 G 3 49° 56% - - 35° 65.4° 41.4° - - -
3/28 9:00pm 283 1 G 2 50° 55% - - 35° 65.4° 41.4° - - -
3/28 8:50pm 26 2 G 6 50° 57% - - 35° 65.4° 41.4° - - -
3/28 8:40pm 23 4 G 6 50° 60% - - 37° 65.4° 41.4° - - -
3/28 8:30pm 40 1 G 4 50° 63% - - 38° 65.4° 41.4° - - -
3/28 8:20pm 52 1 G 3 50° 64% - - 38° 65.4° 41.4° - - -
3/28 8:10pm 68 1 G 2 50° 65% - - 38° 65.4° 41.4° - - -
3/28 8:00pm 96 2 G 3 50° 65% - - 38° 65.4° 41.4° - - -
3/28 7:50pm 316 1 G 2 50° 64% - - 38° 65.4° 41.4° - - -
3/28 7:40pm 129 1 G 3 50° 64% - - 39° 65.4° 41.4° - - -
3/28 7:30pm 294 2 G 4 51° 62% - - 38° 65.4° 41.4° - - -
3/28 7:20pm 290 3 G 5 51° 62% - - 39° 65.4° 41.4° - - -
3/28 7:10pm 274 2 G 4 52° 63% - - 39° 65.4° 41.4° - - -
3/28 7:00pm 248 2 G 5 52° 62% - - 40° 65.4° 41.4° - - -
3/28 6:50pm 234 4 G 7 54° 59% - - 40° 65.4° 41.4° - - -
3/28 6:40pm 258 6 G 8 54° 59% - - 40° 65.4° 41.4° - - -
3/28 6:30pm 211 4 G 8 55° 58% - - 41° 65.4° 41.4° - - -
3/28 6:20pm 236 6 G 11 55° 58% - - 41° 65.4° 41.4° - - -
3/28 6:10pm 242 6 G 10 57° 51% - - 39° 65.4° 41.4° - - -
3/28 6:00pm 229 6 G 10 57° 50% - - 39° 65.4° 41.4° - - -
3/28 5:50pm 252 8 G 11 59° 44% - - 36° 65.4° 41.4° - - -
3/28 5:40pm 251 9 G 12 59° 42% - - 36° 65.4° 41.4° - - -
3/28 5:30pm 246 7 G 11 59° 40% - - 35° 65.4° 41.4° - - -
3/28 5:20pm 248 7 G 11 60° 35% - - 32° 65.4° 41.4° - - -
3/28 5:10pm 241 8 G 12 60° 34% - - 32° 65.4° 41.4° - - -
3/28 5:00pm 243 8 G 13 60° 32% - - 30° 65.4° 41.4° - - -
3/28 4:50pm 251 7 G 12 60° 31% - - 30° 65.4° 41.4° - - -
3/28 4:40pm 217 6 G 11 61° 30% - - 29° 65.4° 41.4° - - -
3/28 4:30pm 246 6 G 12 61° 29% - - 29° 65.4° 41.4° - - -
3/28 4:20pm 165 9 G 17 62° 25% - - 25° 65.4° 41.4° - - -
3/28 4:10pm 132 4 G 14 64° 20% - - 21° 65.4° 41.4° - - -
3/28 4:00pm 192 3 G 8 63° 19% - - 20° 65.4° 41.4° - - -
3/28 3:50pm 183 4 G 11 65° 15% - - 16° 65.4° 41.4° - - -
3/28 3:40pm 58 4 G 11 63° 14% - - 14° 64.4° 41.4° - - -
3/28 3:30pm 93 4 G 10 62° 15% - - 13° 64.4° 41.4° - - -
3/28 3:20pm 49 4 G 11 63° 14% - - 13° 64.4° 41.4° - - -
3/28 3:10pm 135 4 G 9 62° 16% - - 16° 64.4° 41.4° - - -
3/28 3:00pm 237 6 G 13 62° 22% - - 23° 64.4° 41.4° - - -
3/28 2:50pm 217 5 G 9 62° 26% - - 27° 64.4° 41.4° - - -
3/28 2:40pm 267 4 G 9 63° 18% - - 19° 64.4° 41.4° - - -
3/28 2:30pm 186 4 G 9 64° 15% - - 15° 64.2° 41.4° - - -
3/28 2:20pm 12 2 G 7 61° 15% - - 13° 63.3° 41.4° - - -
3/28 2:10pm 352 4 G 14 62° 17% - - 16° 62.8° 41.4° - - -
3/28 2:00pm 59 6 G 10 61° 14% - - 12° 61.8° 41.4° - - -
3/28 1:50pm 57 3 G 6 61° 14% - - 11° 61.6° 41.4° - - -
3/28 1:40pm 81 4 G 8 59° 15% - - 11° 61.1° 41.4° - - -
3/28 1:30pm 77 5 G 12 59° 15% - - 12° 61.1° 41.4° - - -
3/28 1:20pm 15 5 G 11 59° 15% - - 11° 61.1° 41.4° - - -
3/28 1:10pm 93 5 G 13 60° 16% - - 14° 61.1° 41.4° - - -
3/28 1:00pm 59 6 G 14 58° 16% - - 12° 59.5° 41.4° - - -
3/28 12:50pm 71 7 G 12 57° 16% - - 11° 58.9° 41.4° - - -
3/28 12:40pm 124 6 G 12 58° 16% - - 12° 58.9° 41.4° - - -
3/28 12:30pm 111 3 G 8 57° 15% - - 11° 58.2° 41.4° - - -
3/28 12:20pm 84 7 G 13 57° 15% - - 10° 58° 41.4° - - -
3/28 12:10pm 91 6 G 12 57° 16% - - 11° 58° 41.4° - - -
3/28 12:00pm 107 5 G 9 57° 16% - - 11° 58° 41.4° - - -
3/28 11:50am 81 7 G 12 56° 15% - - 10° 57.5° 41.4° - - -
3/28 11:40am 87 5 G 13 56° 16% - - 11° 57.3° 41.4° - - -
3/28 11:30am 60 7 G 13 56° 15% - - 57° 41.4° - - -
3/28 11:20am 76 7 G 15 55° 15% - - 56.3° 41.4° - - -
3/28 11:10am 60 6 G 14 55° 15% - - 56.3° 41.4° - - -
3/28 11:00am 70 8 G 16 55° 16% - - 10° 55.3° 41.4° - - -
3/28 10:50am 63 9 G 21 53° 17% - - 54.7° 41.4° - - -
3/28 10:40am 69 9 G 16 53° 17% - - 10° 54° 41.4° - - -
3/28 10:30am 81 6 G 17 53° 18% - - 10° 53.6° 41.4° - - -
3/28 10:20am 69 8 G 16 53° 17% - - 53.6° 41.4° - - -
3/28 10:10am 69 7 G 20 53° 17% - - 53.6° 41.4° - - -
3/28 10:00am 99 4 G 14 53° 18% - - 10° 53.6° 41.4° - - -
3/28 9:50am 88 7 G 18 52° 20% - - 12° 53.2° 41.4° - - -
3/28 9:40am 62 13 G 23 51° 18% - - 51.5° 41.4° - - -
3/28 9:30am 63 12 G 21 51° 19% - - 10° 51.5° 41.4° - - -
3/28 9:20am 65 12 G 20 51° 20% - - 11° 51.3° 41.4° - - -
3/28 9:10am 68 14 G 23 50° 20% - - 10° 50.8° 41.4° - - -
3/28 9:00am 73 12 G 18 50° 20% - - 11° 50.8° 41.4° - - -
3/28 8:50am 63 11 G 21 50° 20% - - 11° 50.3° 41.4° - - -
3/28 8:40am 69 6 G 12 50° 21% - - 11° 50.1° 41.4° - - -
3/28 8:30am 304 5 G 12 49° 24% - - 13° 49.5° 41.4° - - -
3/28 8:20am 52 3 G 11 49° 23% - - 12° 48.9° 41.4° - - -
3/28 8:10am 80 4 G 10 48° 24% - - 13° 48.5° 41.4° - - -
3/28 8:00am 53 4 G 15 48° 23% - - 12° 48.2° 41.4° - - -
3/28 7:50am 63 4 G 14 48° 23% - - 12° 47.8° 41.4° - - -
3/28 7:40am 74 9 G 19 47° 23% - - 11° 47.5° 41.4° - - -
3/28 7:30am 67 6 G 17 47° 24% - - 12° 47.4° 41.4° - - -
3/28 7:20am 37 3 G 8 46° 25% - - 12° 47.4° 41.4° - - -
3/28 7:10am 255 2 G 7 45° 26% - - 12° 47.4° 41.4° - - -
3/28 7:00am 298 3 G 10 45° 25% - - 12° 47.4° 41.4° - - -
3/28 6:50am 24 3 G 7 46° 25% - - 12° 47.4° 41.4° - - -
3/28 6:40am 251 2 G 6 45° 27% - - 13° 47.4° 41.4° - - -
3/28 6:30am 345 3 G 8 46° 26% - - 13° 47.4° 41.4° - - -
3/28 6:20am 333 3 G 8 46° 27% - - 14° 47.4° 41.4° - - -
3/28 6:10am 31 2 G 9 46° 28% - - 14° 47.4° 41.4° - - -
3/28 6:00am 39 2 G 5 45° 30% - - 16° 47.4° 41.4° - - -